sensor_id;sensor_type;location;lat;lon;timestamp;P1;durP1;ratioP1;P2;durP2;ratioP2
4278;SDS011;2153;47.744;10.580;2024-03-08T00:01:33;33.60;;;16.87;;
4278;SDS011;2153;47.744;10.580;2024-03-08T00:04:00;36.83;;;17.47;;
4278;SDS011;2153;47.744;10.580;2024-03-08T00:06:27;44.03;;;17.87;;
4278;SDS011;2153;47.744;10.580;2024-03-08T00:08:56;41.13;;;19.13;;
4278;SDS011;2153;47.744;10.580;2024-03-08T00:11:23;41.90;;;18.20;;
4278;SDS011;2153;47.744;10.580;2024-03-08T00:13:51;39.63;;;19.03;;
4278;SDS011;2153;47.744;10.580;2024-03-08T00:16:18;51.20;;;18.27;;
4278;SDS011;2153;47.744;10.580;2024-03-08T00:18:45;37.60;;;17.87;;
4278;SDS011;2153;47.744;10.580;2024-03-08T00:21:14;41.17;;;18.27;;
4278;SDS011;2153;47.744;10.580;2024-03-08T00:23:41;50.93;;;16.97;;
4278;SDS011;2153;47.744;10.580;2024-03-08T00:26:09;38.20;;;17.60;;
4278;SDS011;2153;47.744;10.580;2024-03-08T00:28:36;38.70;;;18.80;;
4278;SDS011;2153;47.744;10.580;2024-03-08T00:31:03;38.73;;;17.87;;
4278;SDS011;2153;47.744;10.580;2024-03-08T00:33:32;36.60;;;17.10;;
4278;SDS011;2153;47.744;10.580;2024-03-08T00:35:59;36.27;;;16.50;;
4278;SDS011;2153;47.744;10.580;2024-03-08T00:38:26;35.87;;;17.17;;
4278;SDS011;2153;47.744;10.580;2024-03-08T00:40:53;35.10;;;16.57;;
4278;SDS011;2153;47.744;10.580;2024-03-08T00:43:22;39.33;;;18.70;;
4278;SDS011;2153;47.744;10.580;2024-03-08T00:45:49;42.77;;;19.30;;
4278;SDS011;2153;47.744;10.580;2024-03-08T00:48:16;44.50;;;19.33;;
4278;SDS011;2153;47.744;10.580;2024-03-08T00:50:43;42.80;;;19.37;;
4278;SDS011;2153;47.744;10.580;2024-03-08T00:53:10;47.03;;;20.40;;
4278;SDS011;2153;47.744;10.580;2024-03-08T00:55:37;50.70;;;23.53;;
4278;SDS011;2153;47.744;10.580;2024-03-08T00:58:04;49.77;;;23.77;;
4278;SDS011;2153;47.744;10.580;2024-03-08T01:00:33;48.73;;;21.20;;
4278;SDS011;2153;47.744;10.580;2024-03-08T01:03:00;49.43;;;22.70;;
4278;SDS011;2153;47.744;10.580;2024-03-08T01:05:28;57.57;;;23.83;;
4278;SDS011;2153;47.744;10.580;2024-03-08T01:07:55;56.63;;;25.40;;
4278;SDS011;2153;47.744;10.580;2024-03-08T01:10:22;60.63;;;24.83;;
4278;SDS011;2153;47.744;10.580;2024-03-08T01:12:49;56.10;;;23.80;;
4278;SDS011;2153;47.744;10.580;2024-03-08T01:15:16;65.67;;;27.47;;
4278;SDS011;2153;47.744;10.580;2024-03-08T01:17:46;67.53;;;32.30;;
4278;SDS011;2153;47.744;10.580;2024-03-08T01:20:13;75.07;;;27.10;;
4278;SDS011;2153;47.744;10.580;2024-03-08T01:22:40;68.13;;;26.93;;
4278;SDS011;2153;47.744;10.580;2024-03-08T01:25:07;63.70;;;27.50;;
4278;SDS011;2153;47.744;10.580;2024-03-08T01:27:34;72.57;;;28.37;;
4278;SDS011;2153;47.744;10.580;2024-03-08T01:30:02;61.50;;;24.57;;
4278;SDS011;2153;47.744;10.580;2024-03-08T01:32:29;62.67;;;24.97;;
4278;SDS011;2153;47.744;10.580;2024-03-08T01:34:57;71.13;;;27.00;;
4278;SDS011;2153;47.744;10.580;2024-03-08T01:37:24;58.30;;;26.07;;
4278;SDS011;2153;47.744;10.580;2024-03-08T01:39:51;67.20;;;26.97;;
4278;SDS011;2153;47.744;10.580;2024-03-08T01:42:18;66.20;;;27.77;;
4278;SDS011;2153;47.744;10.580;2024-03-08T01:44:47;68.87;;;28.37;;
4278;SDS011;2153;47.744;10.580;2024-03-08T01:47:14;71.53;;;26.33;;
4278;SDS011;2153;47.744;10.580;2024-03-08T01:49:41;83.13;;;30.03;;
4278;SDS011;2153;47.744;10.580;2024-03-08T01:52:10;77.57;;;28.83;;
4278;SDS011;2153;47.744;10.580;2024-03-08T01:54:37;78.97;;;27.50;;
4278;SDS011;2153;47.744;10.580;2024-03-08T01:57:06;85.60;;;31.47;;
4278;SDS011;2153;47.744;10.580;2024-03-08T01:59:33;71.63;;;28.60;;
4278;SDS011;2153;47.744;10.580;2024-03-08T02:02:01;70.80;;;27.67;;
4278;SDS011;2153;47.744;10.580;2024-03-08T02:04:29;79.87;;;27.63;;
4278;SDS011;2153;47.744;10.580;2024-03-08T02:06:57;84.87;;;26.27;;
4278;SDS011;2153;47.744;10.580;2024-03-08T02:09:25;73.33;;;27.50;;
4278;SDS011;2153;47.744;10.580;2024-03-08T02:11:52;71.50;;;26.77;;
4278;SDS011;2153;47.744;10.580;2024-03-08T02:14:19;87.40;;;29.33;;
4278;SDS011;2153;47.744;10.580;2024-03-08T02:16:46;81.07;;;33.63;;
4278;SDS011;2153;47.744;10.580;2024-03-08T02:19:14;95.57;;;26.73;;
4278;SDS011;2153;47.744;10.580;2024-03-08T02:21:42;64.60;;;27.20;;
4278;SDS011;2153;47.744;10.580;2024-03-08T02:24:12;73.57;;;28.43;;
4278;SDS011;2153;47.744;10.580;2024-03-08T02:26:39;73.10;;;24.87;;
4278;SDS011;2153;47.744;10.580;2024-03-08T02:29:07;69.23;;;26.33;;
4278;SDS011;2153;47.744;10.580;2024-03-08T02:31:34;73.40;;;25.83;;
4278;SDS011;2153;47.744;10.580;2024-03-08T02:34:01;81.80;;;27.90;;
4278;SDS011;2153;47.744;10.580;2024-03-08T02:36:28;90.40;;;28.00;;
4278;SDS011;2153;47.744;10.580;2024-03-08T02:38:59;108.13;;;29.77;;
4278;SDS011;2153;47.744;10.580;2024-03-08T02:41:26;80.20;;;30.17;;
4278;SDS011;2153;47.744;10.580;2024-03-08T02:43:53;77.67;;;29.00;;
4278;SDS011;2153;47.744;10.580;2024-03-08T02:46:20;74.93;;;28.43;;
4278;SDS011;2153;47.744;10.580;2024-03-08T02:48:47;75.60;;;26.90;;
4278;SDS011;2153;47.744;10.580;2024-03-08T02:51:14;84.70;;;29.07;;
4278;SDS011;2153;47.744;10.580;2024-03-08T02:53:41;82.37;;;29.50;;
4278;SDS011;2153;47.744;10.580;2024-03-08T02:56:10;87.00;;;29.80;;
4278;SDS011;2153;47.744;10.580;2024-03-08T02:58:41;101.03;;;27.47;;
4278;SDS011;2153;47.744;10.580;2024-03-08T03:01:13;108.40;;;27.00;;
4278;SDS011;2153;47.744;10.580;2024-03-08T03:03:40;90.93;;;27.80;;
4278;SDS011;2153;47.744;10.580;2024-03-08T03:06:07;105.67;;;30.13;;
4278;SDS011;2153;47.744;10.580;2024-03-08T03:08:34;90.00;;;26.40;;
4278;SDS011;2153;47.744;10.580;2024-03-08T03:11:01;133.97;;;36.10;;
4278;SDS011;2153;47.744;10.580;2024-03-08T03:13:30;103.33;;;28.80;;
4278;SDS011;2153;47.744;10.580;2024-03-08T03:15:58;97.10;;;39.30;;
4278;SDS011;2153;47.744;10.580;2024-03-08T03:18:25;78.80;;;28.60;;
4278;SDS011;2153;47.744;10.580;2024-03-08T03:20:52;89.70;;;36.13;;
4278;SDS011;2153;47.744;10.580;2024-03-08T03:23:19;105.97;;;36.30;;
4278;SDS011;2153;47.744;10.580;2024-03-08T03:25:46;86.10;;;30.20;;
4278;SDS011;2153;47.744;10.580;2024-03-08T03:28:13;86.67;;;29.37;;
4278;SDS011;2153;47.744;10.580;2024-03-08T03:30:44;78.03;;;28.30;;
4278;SDS011;2153;47.744;10.580;2024-03-08T03:33:11;84.63;;;28.33;;
4278;SDS011;2153;47.744;10.580;2024-03-08T03:35:40;81.53;;;27.53;;
4278;SDS011;2153;47.744;10.580;2024-03-08T03:38:08;84.67;;;28.00;;
4278;SDS011;2153;47.744;10.580;2024-03-08T03:40:35;91.33;;;29.57;;
4278;SDS011;2153;47.744;10.580;2024-03-08T03:43:02;78.50;;;28.00;;
4278;SDS011;2153;47.744;10.580;2024-03-08T03:45:29;106.90;;;30.37;;
4278;SDS011;2153;47.744;10.580;2024-03-08T03:48:01;86.17;;;28.40;;
4278;SDS011;2153;47.744;10.580;2024-03-08T03:50:29;86.97;;;26.87;;
4278;SDS011;2153;47.744;10.580;2024-03-08T03:52:59;99.53;;;28.57;;
4278;SDS011;2153;47.744;10.580;2024-03-08T03:55:26;91.53;;;29.60;;
4278;SDS011;2153;47.744;10.580;2024-03-08T03:57:54;84.20;;;27.90;;
4278;SDS011;2153;47.744;10.580;2024-03-08T04:00:21;101.77;;;25.80;;
4278;SDS011;2153;47.744;10.580;2024-03-08T04:02:48;83.63;;;28.27;;
4278;SDS011;2153;47.744;10.580;2024-03-08T04:05:17;72.33;;;25.43;;
4278;SDS011;2153;47.744;10.580;2024-03-08T04:07:44;67.77;;;26.17;;
4278;SDS011;2153;47.744;10.580;2024-03-08T04:10:11;82.73;;;25.10;;
4278;SDS011;2153;47.744;10.580;2024-03-08T04:12:38;79.37;;;31.10;;
4278;SDS011;2153;47.744;10.580;2024-03-08T04:15:06;79.33;;;28.37;;
4278;SDS011;2153;47.744;10.580;2024-03-08T04:17:33;71.47;;;25.00;;
4278;SDS011;2153;47.744;10.580;2024-03-08T04:20:02;60.43;;;22.27;;
4278;SDS011;2153;47.744;10.580;2024-03-08T04:22:35;78.63;;;26.97;;
4278;SDS011;2153;47.744;10.580;2024-03-08T04:25:02;80.57;;;28.00;;
4278;SDS011;2153;47.744;10.580;2024-03-08T04:27:29;75.30;;;24.87;;
4278;SDS011;2153;47.744;10.580;2024-03-08T04:29:57;79.17;;;26.83;;
4278;SDS011;2153;47.744;10.580;2024-03-08T04:32:25;91.43;;;25.63;;
4278;SDS011;2153;47.744;10.580;2024-03-08T04:34:53;106.60;;;27.27;;
4278;SDS011;2153;47.744;10.580;2024-03-08T04:37:20;81.67;;;25.43;;
4278;SDS011;2153;47.744;10.580;2024-03-08T04:39:48;82.10;;;27.47;;
4278;SDS011;2153;47.744;10.580;2024-03-08T04:42:15;100.23;;;26.33;;
4278;SDS011;2153;47.744;10.580;2024-03-08T04:44:43;70.53;;;26.13;;
4278;SDS011;2153;47.744;10.580;2024-03-08T04:47:10;84.50;;;26.50;;
4278;SDS011;2153;47.744;10.580;2024-03-08T04:49:37;96.70;;;27.27;;
4278;SDS011;2153;47.744;10.580;2024-03-08T04:52:04;89.83;;;27.77;;
4278;SDS011;2153;47.744;10.580;2024-03-08T04:54:31;79.73;;;27.20;;
4278;SDS011;2153;47.744;10.580;2024-03-08T04:57:00;81.20;;;22.47;;
4278;SDS011;2153;47.744;10.580;2024-03-08T04:59:27;97.50;;;25.50;;
4278;SDS011;2153;47.744;10.580;2024-03-08T05:01:54;69.50;;;23.80;;
4278;SDS011;2153;47.744;10.580;2024-03-08T05:04:22;81.67;;;23.60;;
4278;SDS011;2153;47.744;10.580;2024-03-08T05:06:49;79.63;;;23.60;;
4278;SDS011;2153;47.744;10.580;2024-03-08T05:09:16;132.03;;;24.57;;
4278;SDS011;2153;47.744;10.580;2024-03-08T05:11:44;99.73;;;28.63;;
4278;SDS011;2153;47.744;10.580;2024-03-08T05:14:13;95.33;;;35.13;;
4278;SDS011;2153;47.744;10.580;2024-03-08T05:16:41;94.93;;;24.30;;
4278;SDS011;2153;47.744;10.580;2024-03-08T05:19:08;108.37;;;25.60;;
4278;SDS011;2153;47.744;10.580;2024-03-08T05:21:35;122.40;;;26.50;;
4278;SDS011;2153;47.744;10.580;2024-03-08T05:24:02;101.33;;;26.67;;
4278;SDS011;2153;47.744;10.580;2024-03-08T05:26:30;112.03;;;27.97;;
4278;SDS011;2153;47.744;10.580;2024-03-08T05:28:58;96.33;;;27.70;;
4278;SDS011;2153;47.744;10.580;2024-03-08T05:31:26;117.03;;;25.03;;
4278;SDS011;2153;47.744;10.580;2024-03-08T05:33:53;111.03;;;25.20;;
4278;SDS011;2153;47.744;10.580;2024-03-08T05:36:21;136.47;;;25.20;;
4278;SDS011;2153;47.744;10.580;2024-03-08T05:38:48;109.60;;;24.83;;
4278;SDS011;2153;47.744;10.580;2024-03-08T05:41:15;121.27;;;23.80;;
4278;SDS011;2153;47.744;10.580;2024-03-08T05:43:42;85.70;;;22.70;;
4278;SDS011;2153;47.744;10.580;2024-03-08T05:46:10;92.67;;;23.00;;
4278;SDS011;2153;47.744;10.580;2024-03-08T05:48:39;177.73;;;25.13;;
4278;SDS011;2153;47.744;10.580;2024-03-08T05:51:06;93.53;;;21.90;;
4278;SDS011;2153;47.744;10.580;2024-03-08T05:53:33;152.90;;;25.37;;
4278;SDS011;2153;47.744;10.580;2024-03-08T05:56:00;91.77;;;25.80;;
4278;SDS011;2153;47.744;10.580;2024-03-08T05:58:28;91.97;;;24.17;;
4278;SDS011;2153;47.744;10.580;2024-03-08T06:00:56;106.87;;;24.53;;
4278;SDS011;2153;47.744;10.580;2024-03-08T06:03:23;103.07;;;21.93;;
4278;SDS011;2153;47.744;10.580;2024-03-08T06:05:52;80.20;;;23.20;;
4278;SDS011;2153;47.744;10.580;2024-03-08T06:08:19;82.10;;;24.40;;
4278;SDS011;2153;47.744;10.580;2024-03-08T06:10:46;134.33;;;24.30;;
4278;SDS011;2153;47.744;10.580;2024-03-08T06:13:17;86.57;;;28.80;;
4278;SDS011;2153;47.744;10.580;2024-03-08T06:15:44;114.43;;;36.80;;
4278;SDS011;2153;47.744;10.580;2024-03-08T06:18:11;77.60;;;23.87;;
4278;SDS011;2153;47.744;10.580;2024-03-08T06:20:40;107.30;;;26.30;;
4278;SDS011;2153;47.744;10.580;2024-03-08T06:23:10;97.80;;;22.83;;
4278;SDS011;2153;47.744;10.580;2024-03-08T06:25:37;79.07;;;24.07;;
4278;SDS011;2153;47.744;10.580;2024-03-08T06:28:04;67.20;;;22.67;;
4278;SDS011;2153;47.744;10.580;2024-03-08T06:30:31;160.07;;;22.37;;
4278;SDS011;2153;47.744;10.580;2024-03-08T06:32:59;123.20;;;24.00;;
4278;SDS011;2153;47.744;10.580;2024-03-08T06:35:27;98.27;;;26.90;;
4278;SDS011;2153;47.744;10.580;2024-03-08T06:37:56;111.77;;;23.63;;
4278;SDS011;2153;47.744;10.580;2024-03-08T06:40:25;76.30;;;23.60;;
4278;SDS011;2153;47.744;10.580;2024-03-08T06:42:52;83.07;;;22.50;;
4278;SDS011;2153;47.744;10.580;2024-03-08T06:45:19;78.10;;;21.23;;
4278;SDS011;2153;47.744;10.580;2024-03-08T06:47:46;90.43;;;22.13;;
4278;SDS011;2153;47.744;10.580;2024-03-08T06:50:13;150.33;;;23.77;;
4278;SDS011;2153;47.744;10.580;2024-03-08T06:52:41;182.03;;;25.03;;
4278;SDS011;2153;47.744;10.580;2024-03-08T06:55:09;139.10;;;26.07;;
4278;SDS011;2153;47.744;10.580;2024-03-08T06:57:38;99.67;;;23.07;;
4278;SDS011;2153;47.744;10.580;2024-03-08T07:00:06;76.50;;;22.30;;
4278;SDS011;2153;47.744;10.580;2024-03-08T07:02:36;63.10;;;22.40;;
4278;SDS011;2153;47.744;10.580;2024-03-08T07:05:04;76.33;;;22.57;;
4278;SDS011;2153;47.744;10.580;2024-03-08T07:07:35;57.97;;;20.23;;
4278;SDS011;2153;47.744;10.580;2024-03-08T07:10:02;111.87;;;31.63;;
4278;SDS011;2153;47.744;10.580;2024-03-08T07:12:29;126.07;;;41.97;;
4278;SDS011;2153;47.744;10.580;2024-03-08T07:14:58;110.37;;;24.30;;
4278;SDS011;2153;47.744;10.580;2024-03-08T07:17:25;100.30;;;22.80;;
4278;SDS011;2153;47.744;10.580;2024-03-08T07:19:52;145.63;;;23.50;;
4278;SDS011;2153;47.744;10.580;2024-03-08T07:22:20;117.97;;;24.40;;
4278;SDS011;2153;47.744;10.580;2024-03-08T07:24:48;110.03;;;25.87;;
4278;SDS011;2153;47.744;10.580;2024-03-08T07:27:40;75.17;;;22.20;;
4278;SDS011;2153;47.744;10.580;2024-03-08T07:30:09;79.53;;;23.87;;
4278;SDS011;2153;47.744;10.580;2024-03-08T07:32:37;67.17;;;22.47;;
4278;SDS011;2153;47.744;10.580;2024-03-08T07:35:04;71.97;;;20.77;;
4278;SDS011;2153;47.744;10.580;2024-03-08T07:37:31;76.77;;;24.10;;
4278;SDS011;2153;47.744;10.580;2024-03-08T07:39:59;69.47;;;21.20;;
4278;SDS011;2153;47.744;10.580;2024-03-08T07:42:26;67.63;;;21.20;;
4278;SDS011;2153;47.744;10.580;2024-03-08T07:44:53;91.27;;;19.80;;
4278;SDS011;2153;47.744;10.580;2024-03-08T07:47:22;61.00;;;22.97;;
4278;SDS011;2153;47.744;10.580;2024-03-08T07:49:49;61.83;;;21.60;;
4278;SDS011;2153;47.744;10.580;2024-03-08T07:52:16;64.80;;;22.70;;
4278;SDS011;2153;47.744;10.580;2024-03-08T07:54:43;64.67;;;21.50;;
4278;SDS011;2153;47.744;10.580;2024-03-08T07:57:10;51.40;;;19.90;;
4278;SDS011;2153;47.744;10.580;2024-03-08T07:59:37;60.67;;;21.53;;
4278;SDS011;2153;47.744;10.580;2024-03-08T08:02:04;57.03;;;21.63;;
4278;SDS011;2153;47.744;10.580;2024-03-08T08:04:32;55.97;;;19.53;;
4278;SDS011;2153;47.744;10.580;2024-03-08T08:06:59;63.77;;;22.80;;
4278;SDS011;2153;47.744;10.580;2024-03-08T08:09:26;81.97;;;21.73;;
4278;SDS011;2153;47.744;10.580;2024-03-08T08:11:59;57.33;;;25.03;;
4278;SDS011;2153;47.744;10.580;2024-03-08T08:14:26;53.50;;;20.67;;
4278;SDS011;2153;47.744;10.580;2024-03-08T08:16:54;53.30;;;18.50;;
4278;SDS011;2153;47.744;10.580;2024-03-08T08:19:22;45.40;;;18.70;;
4278;SDS011;2153;47.744;10.580;2024-03-08T08:21:53;46.63;;;18.40;;
4278;SDS011;2153;47.744;10.580;2024-03-08T08:24:20;56.00;;;17.57;;
4278;SDS011;2153;47.744;10.580;2024-03-08T08:26:47;57.83;;;18.23;;
4278;SDS011;2153;47.744;10.580;2024-03-08T08:29:14;47.20;;;18.80;;
4278;SDS011;2153;47.744;10.580;2024-03-08T08:31:42;52.23;;;18.20;;
4278;SDS011;2153;47.744;10.580;2024-03-08T08:34:09;46.77;;;18.10;;
4278;SDS011;2153;47.744;10.580;2024-03-08T08:36:36;42.53;;;16.77;;
4278;SDS011;2153;47.744;10.580;2024-03-08T08:39:05;52.03;;;17.40;;
4278;SDS011;2153;47.744;10.580;2024-03-08T08:41:37;37.50;;;16.90;;
4278;SDS011;2153;47.744;10.580;2024-03-08T08:44:06;56.93;;;17.73;;
4278;SDS011;2153;47.744;10.580;2024-03-08T08:46:35;47.63;;;17.70;;
4278;SDS011;2153;47.744;10.580;2024-03-08T08:49:02;40.50;;;16.53;;
4278;SDS011;2153;47.744;10.580;2024-03-08T08:51:29;43.27;;;16.83;;
4278;SDS011;2153;47.744;10.580;2024-03-08T08:53:58;42.10;;;17.43;;
4278;SDS011;2153;47.744;10.580;2024-03-08T08:56:27;74.87;;;17.70;;
4278;SDS011;2153;47.744;10.580;2024-03-08T08:58:54;36.50;;;15.63;;
4278;SDS011;2153;47.744;10.580;2024-03-08T09:01:22;49.10;;;15.40;;
4278;SDS011;2153;47.744;10.580;2024-03-08T09:03:49;50.23;;;20.07;;
4278;SDS011;2153;47.744;10.580;2024-03-08T09:06:17;35.30;;;15.67;;
4278;SDS011;2153;47.744;10.580;2024-03-08T09:08:45;36.10;;;14.33;;
4278;SDS011;2153;47.744;10.580;2024-03-08T09:11:12;39.20;;;17.03;;
4278;SDS011;2153;47.744;10.580;2024-03-08T09:13:43;34.00;;;14.37;;
4278;SDS011;2153;47.744;10.580;2024-03-08T09:16:11;40.93;;;16.37;;
4278;SDS011;2153;47.744;10.580;2024-03-08T09:18:38;32.83;;;13.70;;
4278;SDS011;2153;47.744;10.580;2024-03-08T09:21:06;32.37;;;13.43;;
4278;SDS011;2153;47.744;10.580;2024-03-08T09:23:34;34.30;;;13.33;;
4278;SDS011;2153;47.744;10.580;2024-03-08T09:26:02;31.80;;;13.37;;
4278;SDS011;2153;47.744;10.580;2024-03-08T09:28:29;37.50;;;14.40;;
4278;SDS011;2153;47.744;10.580;2024-03-08T09:30:57;30.03;;;13.23;;
4278;SDS011;2153;47.744;10.580;2024-03-08T09:33:26;32.43;;;13.47;;
4278;SDS011;2153;47.744;10.580;2024-03-08T09:35:54;32.43;;;13.47;;
4278;SDS011;2153;47.744;10.580;2024-03-08T09:38:22;27.80;;;12.57;;
4278;SDS011;2153;47.744;10.580;2024-03-08T09:40:50;29.60;;;12.00;;
4278;SDS011;2153;47.744;10.580;2024-03-08T09:43:18;41.67;;;12.60;;
4278;SDS011;2153;47.744;10.580;2024-03-08T09:45:45;29.30;;;11.63;;
4278;SDS011;2153;47.744;10.580;2024-03-08T09:48:15;28.60;;;12.27;;
4278;SDS011;2153;47.744;10.580;2024-03-08T09:50:44;27.37;;;12.27;;
4278;SDS011;2153;47.744;10.580;2024-03-08T09:53:11;28.57;;;12.20;;
4278;SDS011;2153;47.744;10.580;2024-03-08T09:55:38;30.70;;;12.27;;
4278;SDS011;2153;47.744;10.580;2024-03-08T09:58:07;27.13;;;11.63;;
4278;SDS011;2153;47.744;10.580;2024-03-08T10:01:01;27.80;;;12.20;;
4278;SDS011;2153;47.744;10.580;2024-03-08T10:03:30;27.37;;;11.97;;
4278;SDS011;2153;47.744;10.580;2024-03-08T10:05:58;28.40;;;11.30;;
4278;SDS011;2153;47.744;10.580;2024-03-08T10:08:26;27.57;;;12.00;;
4278;SDS011;2153;47.744;10.580;2024-03-08T10:10:54;25.10;;;12.17;;
4278;SDS011;2153;47.744;10.580;2024-03-08T10:13:23;26.67;;;11.27;;
4278;SDS011;2153;47.744;10.580;2024-03-08T10:15:51;34.87;;;18.67;;
4278;SDS011;2153;47.744;10.580;2024-03-08T10:18:18;24.50;;;10.90;;
4278;SDS011;2153;47.744;10.580;2024-03-08T10:20:47;27.90;;;11.60;;
4278;SDS011;2153;47.744;10.580;2024-03-08T10:23:28;31.93;;;15.70;;
4278;SDS011;2153;47.744;10.580;2024-03-08T10:25:56;30.97;;;14.47;;
4278;SDS011;2153;47.744;10.580;2024-03-08T10:28:23;33.70;;;16.30;;
4278;SDS011;2153;47.744;10.580;2024-03-08T10:30:50;26.80;;;11.60;;
4278;SDS011;2153;47.744;10.580;2024-03-08T10:33:17;29.87;;;13.70;;
4278;SDS011;2153;47.744;10.580;2024-03-08T10:35:44;26.67;;;12.17;;
4278;SDS011;2153;47.744;10.580;2024-03-08T10:38:13;29.13;;;12.40;;
4278;SDS011;2153;47.744;10.580;2024-03-08T10:40:43;29.67;;;13.50;;
4278;SDS011;2153;47.744;10.580;2024-03-08T10:43:11;25.63;;;11.53;;
4278;SDS011;2153;47.744;10.580;2024-03-08T10:45:43;35.37;;;13.10;;
4278;SDS011;2153;47.744;10.580;2024-03-08T10:48:16;31.60;;;13.67;;
4278;SDS011;2153;47.744;10.580;2024-03-08T10:50:47;26.67;;;11.30;;
4278;SDS011;2153;47.744;10.580;2024-03-08T10:53:16;31.50;;;13.90;;
4278;SDS011;2153;47.744;10.580;2024-03-08T10:55:46;24.60;;;11.20;;
4278;SDS011;2153;47.744;10.580;2024-03-08T10:58:13;24.90;;;11.60;;
4278;SDS011;2153;47.744;10.580;2024-03-08T11:22:50;26.90;;;11.90;;
4278;SDS011;2153;47.744;10.580;2024-03-08T11:28:13;25.30;;;11.00;;
4278;SDS011;2153;47.744;10.580;2024-03-08T11:30:41;29.77;;;12.90;;
4278;SDS011;2153;47.744;10.580;2024-03-08T11:33:10;34.93;;;15.27;;
4278;SDS011;2153;47.744;10.580;2024-03-08T11:35:38;24.50;;;10.77;;
4278;SDS011;2153;47.744;10.580;2024-03-08T11:38:07;26.57;;;11.07;;
4278;SDS011;2153;47.744;10.580;2024-03-08T11:40:35;25.87;;;11.27;;
4278;SDS011;2153;47.744;10.580;2024-03-08T11:43:02;23.70;;;10.77;;
4278;SDS011;2153;47.744;10.580;2024-03-08T11:45:32;23.57;;;10.70;;
4278;SDS011;2153;47.744;10.580;2024-03-08T11:48:01;26.77;;;10.50;;
4278;SDS011;2153;47.744;10.580;2024-03-08T11:50:28;25.50;;;11.30;;
4278;SDS011;2153;47.744;10.580;2024-03-08T11:52:59;25.13;;;10.63;;
4278;SDS011;2153;47.744;10.580;2024-03-08T11:58:00;27.00;;;11.60;;
4278;SDS011;2153;47.744;10.580;2024-03-08T12:00:27;26.40;;;12.40;;
4278;SDS011;2153;47.744;10.580;2024-03-08T12:03:03;27.17;;;12.10;;
4278;SDS011;2153;47.744;10.580;2024-03-08T12:05:30;26.97;;;11.00;;
4278;SDS011;2153;47.744;10.580;2024-03-08T12:07:58;25.80;;;10.80;;
4278;SDS011;2153;47.744;10.580;2024-03-08T12:10:25;25.30;;;11.53;;
4278;SDS011;2153;47.744;10.580;2024-03-08T12:12:53;23.30;;;11.30;;
4278;SDS011;2153;47.744;10.580;2024-03-08T12:15:23;24.47;;;10.43;;
4278;SDS011;2153;47.744;10.580;2024-03-08T12:17:51;26.43;;;11.23;;
4278;SDS011;2153;47.744;10.580;2024-03-08T12:20:19;31.40;;;13.23;;
4278;SDS011;2153;47.744;10.580;2024-03-08T12:22:48;30.03;;;13.00;;
4278;SDS011;2153;47.744;10.580;2024-03-08T12:25:15;28.15;;;11.60;;
4278;SDS011;2153;47.744;10.580;2024-03-08T12:27:44;30.33;;;13.40;;
4278;SDS011;2153;47.744;10.580;2024-03-08T12:30:15;27.30;;;12.07;;
4278;SDS011;2153;47.744;10.580;2024-03-08T12:32:47;26.57;;;11.80;;
4278;SDS011;2153;47.744;10.580;2024-03-08T12:35:14;26.33;;;11.07;;
4278;SDS011;2153;47.744;10.580;2024-03-08T12:37:41;28.33;;;12.87;;
4278;SDS011;2153;47.744;10.580;2024-03-08T12:40:09;31.53;;;13.03;;
4278;SDS011;2153;47.744;10.580;2024-03-08T12:42:36;25.63;;;11.20;;
4278;SDS011;2153;47.744;10.580;2024-03-08T12:45:04;25.77;;;12.20;;
4278;SDS011;2153;47.744;10.580;2024-03-08T12:47:35;28.73;;;11.23;;
4278;SDS011;2153;47.744;10.580;2024-03-08T12:50:03;25.37;;;11.40;;
4278;SDS011;2153;47.744;10.580;2024-03-08T12:52:33;25.33;;;11.73;;
4278;SDS011;2153;47.744;10.580;2024-03-08T12:55:01;28.50;;;11.83;;
4278;SDS011;2153;47.744;10.580;2024-03-08T12:57:31;28.30;;;12.07;;
4278;SDS011;2153;47.744;10.580;2024-03-08T12:59:58;26.57;;;11.53;;
4278;SDS011;2153;47.744;10.580;2024-03-08T13:02:25;29.33;;;12.13;;
4278;SDS011;2153;47.744;10.580;2024-03-08T13:04:52;26.60;;;12.20;;
4278;SDS011;2153;47.744;10.580;2024-03-08T13:07:24;26.10;;;11.57;;
4278;SDS011;2153;47.744;10.580;2024-03-08T13:09:51;203.67;;;92.27;;
4278;SDS011;2153;47.744;10.580;2024-03-08T13:12:19;27.23;;;13.40;;
4278;SDS011;2153;47.744;10.580;2024-03-08T13:14:46;28.90;;;12.50;;
4278;SDS011;2153;47.744;10.580;2024-03-08T13:17:13;28.53;;;13.07;;
4278;SDS011;2153;47.744;10.580;2024-03-08T13:19:40;29.10;;;13.07;;
4278;SDS011;2153;47.744;10.580;2024-03-08T13:22:07;27.67;;;12.90;;
4278;SDS011;2153;47.744;10.580;2024-03-08T13:24:39;39.70;;;13.63;;
4278;SDS011;2153;47.744;10.580;2024-03-08T13:27:06;27.67;;;13.27;;
4278;SDS011;2153;47.744;10.580;2024-03-08T13:29:44;27.83;;;11.87;;
4278;SDS011;2153;47.744;10.580;2024-03-08T13:32:11;27.83;;;12.40;;
4278;SDS011;2153;47.744;10.580;2024-03-08T13:34:40;27.07;;;12.80;;
4278;SDS011;2153;47.744;10.580;2024-03-08T13:37:07;28.53;;;14.40;;
4278;SDS011;2153;47.744;10.580;2024-03-08T13:39:35;29.10;;;13.63;;
4278;SDS011;2153;47.744;10.580;2024-03-08T13:42:09;30.10;;;14.27;;
4278;SDS011;2153;47.744;10.580;2024-03-08T13:44:38;30.77;;;14.23;;
4278;SDS011;2153;47.744;10.580;2024-03-08T13:47:05;32.03;;;13.77;;
4278;SDS011;2153;47.744;10.580;2024-03-08T13:49:32;30.60;;;14.90;;
4278;SDS011;2153;47.744;10.580;2024-03-08T13:51:59;31.70;;;14.43;;
4278;SDS011;2153;47.744;10.580;2024-03-08T13:54:26;29.30;;;15.27;;
4278;SDS011;2153;47.744;10.580;2024-03-08T13:56:56;31.00;;;13.70;;
4278;SDS011;2153;47.744;10.580;2024-03-08T13:59:24;71.47;;;36.13;;
4278;SDS011;2153;47.744;10.580;2024-03-08T14:01:54;33.73;;;18.23;;
4278;SDS011;2153;47.744;10.580;2024-03-08T14:04:21;28.00;;;13.07;;
4278;SDS011;2153;47.744;10.580;2024-03-08T14:06:49;29.50;;;14.00;;
4278;SDS011;2153;47.744;10.580;2024-03-08T14:09:16;27.20;;;13.17;;
4278;SDS011;2153;47.744;10.580;2024-03-08T14:11:44;31.73;;;14.30;;
4278;SDS011;2153;47.744;10.580;2024-03-08T14:14:11;31.23;;;14.10;;
4278;SDS011;2153;47.744;10.580;2024-03-08T14:16:39;30.57;;;15.67;;
4278;SDS011;2153;47.744;10.580;2024-03-08T14:19:08;27.67;;;13.93;;
4278;SDS011;2153;47.744;10.580;2024-03-08T14:21:35;31.80;;;13.93;;
4278;SDS011;2153;47.744;10.580;2024-03-08T14:24:04;38.30;;;13.73;;
4278;SDS011;2153;47.744;10.580;2024-03-08T14:26:31;39.17;;;14.30;;
4278;SDS011;2153;47.744;10.580;2024-03-08T14:28:59;27.50;;;12.77;;
4278;SDS011;2153;47.744;10.580;2024-03-08T14:31:26;29.10;;;12.97;;
4278;SDS011;2153;47.744;10.580;2024-03-08T14:33:54;36.10;;;13.07;;
4278;SDS011;2153;47.744;10.580;2024-03-08T14:36:22;28.87;;;13.33;;
4278;SDS011;2153;47.744;10.580;2024-03-08T14:38:50;26.47;;;11.07;;
4278;SDS011;2153;47.744;10.580;2024-03-08T14:41:18;29.07;;;13.73;;
4278;SDS011;2153;47.744;10.580;2024-03-08T14:43:47;28.10;;;12.50;;
4278;SDS011;2153;47.744;10.580;2024-03-08T14:46:14;27.50;;;12.70;;
4278;SDS011;2153;47.744;10.580;2024-03-08T14:48:42;27.63;;;12.90;;
4278;SDS011;2153;47.744;10.580;2024-03-08T14:51:10;29.93;;;12.63;;
4278;SDS011;2153;47.744;10.580;2024-03-08T14:53:39;31.73;;;14.60;;
4278;SDS011;2153;47.744;10.580;2024-03-08T14:56:07;24.33;;;11.90;;
4278;SDS011;2153;47.744;10.580;2024-03-08T14:58:34;33.30;;;12.90;;
4278;SDS011;2153;47.744;10.580;2024-03-08T15:01:03;26.30;;;11.77;;
4278;SDS011;2153;47.744;10.580;2024-03-08T15:03:32;28.90;;;12.37;;
4278;SDS011;2153;47.744;10.580;2024-03-08T15:06:01;30.30;;;13.27;;